createdAt,value
2022-11-05T00:00:42.706Z,100.00
2022-11-05T00:04:08.961Z,100.00
2022-11-05T00:07:34.390Z,100.00
2022-11-05T00:10:40.218Z,100.00
2022-11-05T00:14:12.897Z,100.00
2022-11-05T00:17:18.475Z,100.00
2022-11-05T00:20:26.183Z,100.00
2022-11-05T00:23:49.451Z,100.00
2022-11-05T00:26:55.294Z,100.00
2022-11-05T00:30:00.940Z,100.00
2022-11-05T00:33:06.758Z,100.00
2022-11-05T00:36:12.607Z,100.00
2022-11-05T00:39:18.607Z,100.00
2022-11-05T00:42:42.022Z,100.00
2022-11-05T00:45:47.412Z,100.00
2022-11-05T00:49:10.721Z,100.00
2022-11-05T00:52:36.767Z,100.00
2022-11-05T00:55:43.027Z,100.00
2022-11-05T00:58:48.984Z,100.00
2022-11-05T01:01:55.414Z,100.00
2022-11-05T01:05:01.057Z,100.00
2022-11-05T01:08:06.748Z,100.00
2022-11-05T01:11:13.267Z,100.00
2022-11-05T01:14:18.945Z,100.00
2022-11-05T01:17:24.439Z,100.00
2022-11-05T01:20:29.910Z,100.00
2022-11-05T01:23:35.300Z,100.00
2022-11-05T01:26:40.751Z,100.00
2022-11-05T01:29:46.182Z,100.00
2022-11-05T01:32:51.482Z,100.00
2022-11-05T01:35:57.009Z,100.00
2022-11-05T01:39:03.635Z,100.00
2022-11-05T01:42:15.121Z,100.00
2022-11-05T01:45:22.186Z,100.00
2022-11-05T01:48:30.940Z,100.00
2022-11-05T01:51:36.396Z,100.00
2022-11-05T01:54:42.018Z,100.00
2022-11-05T01:57:47.595Z,100.00
2022-11-05T02:00:53.678Z,100.00
2022-11-05T02:04:01.062Z,100.00
2022-11-05T02:07:10.573Z,100.00
2022-11-05T02:10:18.181Z,100.00
2022-11-05T02:13:23.615Z,100.00
2022-11-05T02:16:37.175Z,100.00
2022-11-05T02:20:05.111Z,100.00
2022-11-05T02:23:24.152Z,100.00
2022-11-05T02:26:46.262Z,100.00
2022-11-05T02:30:01.370Z,100.00
2022-11-05T02:33:17.915Z,100.00
2022-11-05T02:36:29.778Z,100.00
2022-11-05T02:39:40.302Z,100.00
2022-11-05T02:42:55.973Z,100.00
2022-11-05T02:46:04.740Z,100.00
2022-11-05T02:49:15.731Z,100.00
2022-11-05T02:52:24.709Z,100.00
2022-11-05T02:55:34.011Z,100.00
2022-11-05T02:58:39.512Z,100.00
2022-11-05T03:01:47.073Z,100.00
2022-11-05T03:04:52.652Z,100.00
2022-11-05T03:08:04.054Z,100.00
2022-11-05T03:11:14.433Z,100.00
2022-11-05T03:14:24.359Z,100.00
2022-11-05T03:17:35.186Z,100.00
2022-11-05T03:20:45.473Z,100.00
2022-11-05T03:23:56.181Z,100.00
2022-11-05T03:27:03.914Z,100.00
2022-11-05T03:30:11.986Z,100.00
2022-11-05T03:33:21.816Z,100.00
2022-11-05T03:36:30.736Z,100.00
2022-11-05T03:39:40.018Z,100.00
2022-11-05T03:42:49.005Z,100.00
2022-11-05T03:45:57.477Z,100.00
2022-11-05T03:49:04.408Z,100.00
2022-11-05T03:52:12.606Z,100.00
2022-11-05T03:55:18.267Z,100.00
2022-11-05T03:58:24.935Z,100.00
2022-11-05T04:01:33.067Z,100.00
2022-11-05T04:04:38.825Z,100.00
2022-11-05T04:08:03.065Z,100.00
2022-11-05T04:11:29.856Z,100.00
2022-11-05T04:14:44.315Z,100.00
2022-11-05T04:17:50.940Z,100.00
2022-11-05T04:21:14.101Z,100.00
2022-11-05T04:24:19.758Z,100.00
2022-11-05T04:27:25.327Z,100.00
2022-11-05T04:30:30.843Z,100.00
2022-11-05T04:33:36.178Z,100.00
2022-11-05T04:36:41.575Z,100.00
2022-11-05T04:39:47.090Z,100.00
2022-11-05T04:42:54.324Z,100.00
2022-11-05T04:45:59.709Z,100.00
2022-11-05T04:49:05.055Z,100.00
2022-11-05T04:52:10.492Z,100.00
2022-11-05T04:55:16.604Z,100.00
2022-11-05T04:58:22.167Z,100.00
2022-11-05T05:01:27.748Z,100.00
2022-11-05T05:04:37.050Z,100.00
2022-11-05T05:07:42.905Z,100.00
2022-11-05T05:10:48.603Z,100.00
2022-11-05T05:13:58.894Z,100.00
2022-11-05T05:17:07.207Z,100.00
2022-11-05T05:20:30.472Z,100.00
2022-11-05T05:23:37.118Z,100.00
2022-11-05T05:26:44.006Z,100.00
2022-11-05T05:29:49.616Z,100.00
2022-11-05T05:32:55.029Z,100.00
2022-11-05T05:36:04.699Z,100.00
2022-11-05T05:39:14.236Z,100.00
2022-11-05T05:42:21.480Z,100.00
2022-11-05T05:45:27.431Z,100.00
2022-11-05T05:48:33.271Z,100.00
2022-11-05T05:51:41.848Z,100.00
2022-11-05T05:54:47.234Z,100.00
2022-11-05T05:57:53.893Z,100.00
2022-11-05T06:01:04.471Z,100.00
2022-11-05T06:04:12.840Z,100.00
2022-11-05T06:07:18.309Z,100.00
2022-11-05T06:10:24.014Z,100.00
2022-11-05T06:13:30.114Z,100.00
2022-11-05T06:16:39.143Z,100.00
2022-11-05T06:19:45.417Z,100.00
2022-11-05T06:22:57.511Z,100.00
2022-11-05T06:26:03.304Z,100.00
2022-11-05T06:29:08.803Z,100.00
2022-11-05T06:32:15.925Z,100.00
2022-11-05T06:35:21.524Z,100.00
2022-11-05T06:38:26.919Z,100.00
2022-11-05T06:41:45.654Z,100.00
2022-11-05T06:44:57.850Z,100.00
2022-11-05T06:48:03.155Z,100.00
2022-11-05T06:51:08.975Z,100.00
2022-11-05T06:54:17.455Z,100.00
2022-11-05T06:57:22.928Z,100.00
2022-11-05T07:00:28.967Z,100.00
2022-11-05T07:03:34.669Z,100.00
2022-11-05T07:06:40.246Z,100.00
2022-11-05T07:09:48.159Z,100.00
2022-11-05T07:12:54.844Z,100.00
2022-11-05T07:16:03.473Z,100.00
2022-11-05T07:19:10.678Z,100.00
2022-11-05T07:22:20.942Z,100.00
2022-11-05T07:25:26.949Z,100.00
2022-11-05T07:28:32.447Z,100.00
2022-11-05T07:31:37.888Z,100.00
2022-11-05T07:34:43.246Z,100.00
2022-11-05T07:37:49.524Z,100.00
2022-11-05T07:40:55.158Z,100.00
2022-11-05T07:44:01.483Z,100.00
2022-11-05T07:47:07.109Z,100.00
2022-11-05T07:50:14.351Z,100.00
2022-11-05T07:53:20.998Z,100.00
2022-11-05T07:56:26.473Z,100.00
2022-11-05T07:59:32.056Z,100.00
2022-11-05T08:02:37.861Z,100.00
2022-11-05T08:05:44.828Z,100.00
2022-11-05T08:08:50.292Z,100.00
2022-11-05T08:12:02.600Z,100.00
2022-11-05T08:15:10.486Z,100.00
2022-11-05T08:18:18.344Z,100.00
2022-11-05T08:21:23.848Z,100.00
2022-11-05T08:24:29.353Z,100.00
2022-11-05T08:27:34.893Z,100.00
2022-11-05T08:30:40.607Z,100.00
2022-11-05T08:33:46.082Z,100.00
2022-11-05T08:36:51.644Z,100.00
2022-11-05T08:39:57.047Z,100.00
2022-11-05T08:43:03.329Z,100.00
2022-11-05T08:46:08.669Z,100.00
2022-11-05T08:49:14.657Z,100.00
2022-11-05T08:52:20.207Z,100.00
2022-11-05T08:55:28.671Z,100.00
2022-11-05T08:58:34.142Z,100.00
2022-11-05T09:01:39.759Z,100.00
2022-11-05T09:04:47.790Z,100.00
2022-11-05T09:07:59.428Z,100.00
2022-11-05T09:11:06.963Z,100.00
2022-11-05T09:14:12.623Z,100.00
2022-11-05T09:17:18.913Z,100.00
2022-11-05T09:20:24.848Z,100.00
2022-11-05T09:23:30.280Z,100.00
2022-11-05T09:26:35.488Z,100.00
2022-11-05T09:29:41.062Z,100.00
2022-11-05T09:32:46.834Z,100.00
2022-11-05T09:35:52.884Z,100.00
2022-11-05T09:38:58.420Z,100.00
2022-11-05T09:42:05.704Z,100.00
2022-11-05T09:48:34.586Z,100.00
2022-11-05T09:51:42.160Z,100.00
2022-11-05T09:54:48.809Z,100.00
2022-11-05T09:57:58.585Z,100.00
2022-11-05T10:01:04.860Z,100.00
2022-11-05T10:04:11.355Z,100.00
2022-11-05T10:07:20.014Z,100.00
2022-11-05T10:10:40.774Z,100.00
2022-11-05T10:13:48.593Z,100.00
2022-11-05T10:16:57.460Z,100.00
2022-11-05T10:20:12.011Z,100.00
2022-11-05T10:23:20.331Z,100.00
2022-11-05T10:26:28.125Z,100.00
2022-11-05T10:29:36.177Z,100.00
2022-11-05T10:32:43.173Z,100.00
2022-11-05T10:35:51.310Z,100.00
2022-11-05T10:39:00.097Z,100.00
2022-11-05T10:42:20.614Z,100.00
2022-11-05T10:45:32.009Z,100.00
2022-11-05T10:48:45.003Z,100.00
2022-11-05T10:51:54.561Z,100.00
2022-11-05T10:55:04.175Z,100.00
2022-11-05T10:58:11.301Z,100.00
2022-11-05T11:01:16.683Z,99.91
2022-11-05T11:04:24.107Z,99.44
2022-11-05T11:07:29.709Z,99.41
2022-11-05T11:10:38.701Z,97.39
2022-11-05T11:13:59.674Z,96.41
2022-11-05T11:17:27.932Z,97.06
2022-11-05T11:20:34.995Z,96.12
2022-11-05T11:23:44.633Z,95.51
2022-11-05T11:26:50.221Z,95.23
2022-11-05T11:29:59.732Z,95.12
2022-11-05T11:33:10.243Z,95.46
2022-11-05T11:36:19.330Z,95.54
2022-11-05T11:39:26.593Z,93.98
2022-11-05T11:42:34.604Z,93.64
2022-11-05T11:45:46.739Z,94.22
2022-11-05T11:48:52.569Z,94.32
2022-11-05T11:52:01.050Z,93.28
2022-11-05T11:55:18.230Z,92.68
2022-11-05T11:58:24.247Z,93.33
2022-11-05T12:01:47.471Z,93.69
2022-11-05T12:05:00.640Z,93.79
2022-11-05T12:08:14.516Z,94.01
2022-11-05T12:11:28.185Z,92.24
2022-11-05T12:14:42.321Z,91.57
2022-11-05T12:17:54.478Z,90.30
2022-11-05T12:21:06.205Z,89.53
2022-11-05T12:24:20.946Z,88.39
2022-11-05T12:27:34.639Z,89.43
2022-11-05T12:30:47.860Z,89.58
2022-11-05T12:33:58.341Z,89.01
2022-11-05T12:37:11.708Z,88.72
2022-11-05T12:40:28.920Z,87.97
2022-11-05T12:43:40.168Z,88.15
2022-11-05T12:46:52.071Z,89.27
2022-11-05T12:50:11.672Z,88.93
2022-11-05T12:53:28.112Z,89.21
2022-11-05T12:56:37.053Z,88.65
2022-11-05T12:59:44.696Z,89.18
2022-11-05T13:02:52.353Z,88.48
2022-11-05T13:06:05.495Z,89.03
2022-11-05T13:09:14.430Z,88.75
2022-11-05T13:12:23.638Z,89.06
2022-11-05T13:15:32.916Z,87.68
2022-11-05T13:18:41.345Z,85.94
2022-11-05T13:21:53.213Z,84.55
2022-11-05T13:25:00.281Z,85.56
2022-11-05T13:28:11.762Z,86.42
2022-11-05T13:31:19.756Z,87.05
2022-11-05T13:34:25.185Z,86.67
2022-11-05T13:37:53.688Z,86.33
2022-11-05T13:41:06.710Z,86.19
2022-11-05T13:44:26.399Z,86.65
2022-11-05T13:47:38.215Z,87.28
2022-11-05T13:50:55.614Z,87.73
2022-11-05T13:54:23.435Z,86.27
2022-11-05T13:57:34.416Z,85.97
2022-11-05T14:00:44.320Z,87.16
2022-11-05T14:03:50.845Z,86.72
2022-11-05T14:07:06.106Z,86.39
2022-11-05T14:10:15.979Z,86.54
2022-11-05T14:13:24.787Z,82.39
2022-11-05T14:16:41.770Z,81.40
2022-11-05T14:20:08.027Z,78.90
2022-11-05T14:23:26.920Z,78.38
2022-11-05T14:26:33.180Z,78.33
2022-11-05T14:29:44.639Z,78.73
2022-11-05T14:32:50.816Z,77.65
2022-11-05T14:36:12.758Z,78.38
2022-11-05T14:39:22.469Z,77.36
2022-11-05T14:42:32.575Z,78.32
2022-11-05T14:45:39.181Z,78.61
2022-11-05T14:48:48.161Z,79.40
2022-11-05T14:51:54.733Z,80.15
2022-11-05T14:55:00.215Z,80.57
2022-11-05T14:58:07.694Z,81.25
2022-11-05T15:01:33.399Z,81.59
2022-11-05T15:04:42.842Z,82.33
2022-11-05T15:07:57.219Z,83.04
2022-11-05T15:11:10.220Z,83.56
2022-11-05T15:14:22.196Z,83.96
2022-11-05T15:17:30.930Z,84.04
2022-11-05T15:20:40.447Z,83.93
2022-11-05T15:23:47.218Z,83.83
2022-11-05T15:26:57.365Z,83.90
2022-11-05T15:30:06.503Z,84.12
2022-11-05T15:33:17.903Z,84.36
2022-11-05T15:36:27.355Z,84.95
2022-11-05T15:39:37.888Z,85.25
2022-11-05T15:42:45.556Z,85.66
2022-11-05T15:46:04.126Z,86.30
2022-11-05T15:49:12.962Z,86.93
2022-11-05T15:52:19.503Z,87.40
2022-11-05T15:55:26.329Z,87.75
2022-11-05T15:58:32.262Z,88.21
2022-11-05T16:01:38.646Z,88.64
2022-11-05T16:04:48.657Z,88.96
2022-11-05T16:07:54.183Z,89.25
2022-11-05T16:11:00.630Z,89.67
2022-11-05T16:14:18.281Z,90.48
2022-11-05T16:17:24.406Z,90.66
2022-11-05T16:20:32.292Z,90.81
2022-11-05T16:23:45.696Z,91.05
2022-11-05T16:27:03.466Z,91.11
2022-11-05T16:30:18.274Z,91.42
2022-11-05T16:33:26.450Z,92.07
2022-11-05T16:36:32.512Z,92.38
2022-11-05T16:39:38.237Z,92.59
2022-11-05T16:42:48.365Z,93.01
2022-11-05T16:45:55.873Z,93.52
2022-11-05T16:49:01.245Z,94.03
2022-11-05T16:52:09.895Z,94.62
2022-11-05T16:55:17.358Z,95.05
2022-11-05T16:58:24.191Z,95.47
2022-11-05T17:01:29.997Z,95.75
2022-11-05T17:04:38.444Z,96.33
2022-11-05T17:07:43.881Z,96.46
2022-11-05T17:10:49.359Z,96.96
2022-11-05T17:13:54.942Z,97.15
2022-11-05T17:17:02.493Z,97.73
2022-11-05T17:20:11.187Z,98.47
2022-11-05T17:23:17.712Z,99.29
2022-11-05T17:26:23.820Z,99.83
2022-11-05T17:29:29.248Z,100.00
2022-11-05T17:32:34.767Z,100.00
2022-11-05T17:35:40.661Z,100.00
2022-11-05T17:38:46.312Z,100.00
2022-11-05T17:41:52.337Z,100.00
2022-11-05T17:45:00.719Z,100.00
2022-11-05T17:48:06.483Z,100.00
2022-11-05T17:51:13.219Z,100.00
2022-11-05T17:54:18.669Z,100.00
2022-11-05T17:57:24.517Z,100.00
2022-11-05T18:00:30.052Z,100.00
2022-11-05T18:03:35.850Z,100.00
2022-11-05T18:06:42.100Z,100.00
2022-11-05T18:09:47.565Z,100.00
2022-11-05T18:12:54.427Z,100.00
2022-11-05T18:15:59.923Z,100.00
2022-11-05T18:19:05.810Z,100.00
2022-11-05T18:22:11.238Z,100.00
2022-11-05T18:25:16.735Z,100.00
2022-11-05T18:28:22.319Z,100.00
2022-11-05T18:31:27.922Z,100.00
2022-11-05T18:34:33.707Z,100.00
2022-11-05T18:37:40.063Z,100.00
2022-11-05T18:40:45.461Z,100.00
2022-11-05T18:43:50.771Z,100.00
2022-11-05T18:46:58.674Z,100.00
2022-11-05T18:50:18.463Z,100.00
2022-11-05T18:53:23.803Z,100.00
2022-11-05T18:56:29.159Z,100.00
2022-11-05T18:59:38.603Z,100.00
2022-11-05T19:02:44.968Z,100.00
2022-11-05T19:05:50.642Z,100.00
2022-11-05T19:08:56.250Z,100.00
2022-11-05T19:12:03.459Z,100.00
2022-11-05T19:15:10.089Z,100.00
2022-11-05T19:18:15.719Z,100.00
2022-11-05T19:21:22.631Z,100.00
2022-11-05T19:24:28.306Z,100.00
2022-11-05T19:27:36.791Z,100.00
2022-11-05T19:30:42.280Z,100.00
2022-11-05T19:33:49.967Z,100.00
2022-11-05T19:36:55.471Z,100.00
2022-11-05T19:40:03.341Z,100.00
2022-11-05T19:43:10.050Z,100.00
2022-11-05T19:46:16.581Z,100.00
2022-11-05T19:49:23.943Z,100.00
2022-11-05T19:52:29.372Z,100.00
2022-11-05T19:55:34.851Z,100.00
2022-11-05T19:58:40.226Z,100.00
2022-11-05T20:01:46.008Z,100.00
2022-11-05T20:04:51.757Z,100.00
2022-11-05T20:07:57.692Z,100.00
2022-11-05T20:11:03.373Z,100.00
2022-11-05T20:14:11.947Z,100.00
2022-11-05T20:17:18.017Z,100.00
2022-11-05T20:20:25.922Z,100.00
2022-11-05T20:23:33.668Z,100.00
2022-11-05T20:26:43.344Z,100.00
2022-11-05T20:29:56.145Z,100.00
2022-11-05T20:33:01.558Z,100.00
2022-11-05T20:36:08.087Z,100.00
2022-11-05T20:39:15.644Z,100.00
2022-11-05T20:42:22.424Z,100.00
2022-11-05T20:45:27.920Z,100.00
2022-11-05T20:48:34.313Z,100.00
2022-11-05T20:51:39.751Z,100.00
2022-11-05T20:54:45.389Z,100.00
2022-11-05T20:57:50.851Z,100.00
2022-11-05T21:01:00.977Z,100.00
2022-11-05T21:04:06.802Z,100.00
2022-11-05T21:07:12.595Z,100.00
2022-11-05T21:10:21.743Z,100.00
2022-11-05T21:13:27.463Z,100.00
2022-11-05T21:16:33.220Z,100.00
2022-11-05T21:19:39.066Z,100.00
2022-11-05T21:22:45.638Z,100.00
2022-11-05T21:25:51.620Z,100.00
2022-11-05T21:28:57.094Z,100.00
2022-11-05T21:32:04.516Z,100.00
2022-11-05T21:35:10.276Z,100.00
2022-11-05T21:38:16.639Z,100.00
2022-11-05T21:41:23.501Z,100.00
2022-11-05T21:44:29.083Z,100.00
2022-11-05T21:47:34.504Z,100.00
2022-11-05T21:50:58.520Z,100.00
2022-11-05T21:54:21.598Z,100.00
2022-11-05T21:57:44.610Z,100.00
2022-11-05T22:00:52.723Z,100.00
2022-11-05T22:04:03.770Z,100.00
2022-11-05T22:07:09.904Z,100.00
2022-11-05T22:10:16.590Z,100.00
2022-11-05T22:13:22.404Z,100.00
2022-11-05T22:16:27.822Z,100.00
2022-11-05T22:19:33.690Z,100.00
2022-11-05T22:22:40.384Z,100.00
2022-11-05T22:25:45.767Z,100.00
2022-11-05T22:28:53.820Z,100.00
2022-11-05T22:31:59.424Z,100.00
2022-11-05T22:35:05.146Z,100.00
2022-11-05T22:38:12.916Z,100.00
2022-11-05T22:41:22.518Z,100.00
2022-11-05T22:44:29.208Z,100.00
2022-11-05T22:47:34.481Z,100.00
2022-11-05T22:50:40.143Z,100.00
2022-11-05T22:53:45.956Z,100.00
2022-11-05T22:56:52.666Z,100.00
2022-11-05T23:00:00.517Z,100.00
2022-11-05T23:03:06.341Z,100.00
2022-11-05T23:06:36.203Z,100.00
2022-11-05T23:09:59.297Z,100.00
2022-11-05T23:13:05.246Z,100.00
2022-11-05T23:16:28.307Z,100.00
2022-11-05T23:19:52.706Z,100.00
2022-11-05T23:23:15.808Z,100.00
2022-11-05T23:26:39.074Z,100.00
2022-11-05T23:29:44.666Z,100.00
2022-11-05T23:32:50.447Z,100.00
2022-11-05T23:36:13.489Z,100.00
2022-11-05T23:39:19.091Z,100.00
2022-11-05T23:42:42.435Z,100.00
2022-11-05T23:46:05.382Z,100.00
2022-11-05T23:49:13.853Z,100.00
2022-11-05T23:52:19.553Z,100.00
2022-11-05T23:55:25.673Z,100.00
2022-11-05T23:58:31.146Z,100.00
